sensor_id;sensor_type;location;lat;lon;timestamp;P1;durP1;ratioP1;P2;durP2;ratioP2
67602;SDS011;54417;47.454;18.918;2022-12-07T00:05:12;21.27;;;11.88;;
67602;SDS011;54417;47.454;18.918;2022-12-07T00:10:37;25.50;;;13.65;;
67602;SDS011;54417;47.454;18.918;2022-12-07T00:16:01;22.42;;;12.75;;
67602;SDS011;54417;47.454;18.918;2022-12-07T00:21:27;22.08;;;11.40;;
67602;SDS011;54417;47.454;18.918;2022-12-07T00:26:53;22.13;;;12.35;;
67602;SDS011;54417;47.454;18.918;2022-12-07T00:32:17;19.00;;;11.85;;
67602;SDS011;54417;47.454;18.918;2022-12-07T00:37:40;22.15;;;10.98;;
67602;SDS011;54417;47.454;18.918;2022-12-07T00:43:06;18.40;;;10.85;;
67602;SDS011;54417;47.454;18.918;2022-12-07T00:48:29;18.20;;;11.75;;
67602;SDS011;54417;47.454;18.918;2022-12-07T00:53:53;17.15;;;10.23;;
67602;SDS011;54417;47.454;18.918;2022-12-07T00:59:18;17.15;;;10.65;;
67602;SDS011;54417;47.454;18.918;2022-12-07T01:04:42;21.45;;;11.23;;
67602;SDS011;54417;47.454;18.918;2022-12-07T01:10:06;17.00;;;10.32;;
67602;SDS011;54417;47.454;18.918;2022-12-07T01:15:31;17.23;;;9.75;;
67602;SDS011;54417;47.454;18.918;2022-12-07T01:20:59;17.10;;;11.02;;
67602;SDS011;54417;47.454;18.918;2022-12-07T01:26:24;21.60;;;11.07;;
67602;SDS011;54417;47.454;18.918;2022-12-07T01:31:50;21.27;;;9.73;;
67602;SDS011;54417;47.454;18.918;2022-12-07T01:37:13;19.88;;;11.25;;
67602;SDS011;54417;47.454;18.918;2022-12-07T01:42:37;21.98;;;11.32;;
67602;SDS011;54417;47.454;18.918;2022-12-07T01:48:02;19.95;;;11.20;;
67602;SDS011;54417;47.454;18.918;2022-12-07T01:53:28;22.42;;;11.05;;
67602;SDS011;54417;47.454;18.918;2022-12-07T01:58:53;20.65;;;12.00;;
67602;SDS011;54417;47.454;18.918;2022-12-07T02:04:20;20.02;;;12.30;;
67602;SDS011;54417;47.454;18.918;2022-12-07T02:09:44;18.27;;;11.82;;
67602;SDS011;54417;47.454;18.918;2022-12-07T02:15:08;16.33;;;10.27;;
67602;SDS011;54417;47.454;18.918;2022-12-07T02:20:33;17.50;;;9.82;;
67602;SDS011;54417;47.454;18.918;2022-12-07T02:26:14;18.67;;;10.85;;
67602;SDS011;54417;47.454;18.918;2022-12-07T02:31:51;18.17;;;10.70;;
67602;SDS011;54417;47.454;18.918;2022-12-07T02:37:25;18.67;;;10.77;;
67602;SDS011;54417;47.454;18.918;2022-12-07T02:42:57;19.20;;;10.88;;
67602;SDS011;54417;47.454;18.918;2022-12-07T02:48:27;18.13;;;9.85;;
67602;SDS011;54417;47.454;18.918;2022-12-07T02:53:51;23.65;;;10.73;;
67602;SDS011;54417;47.454;18.918;2022-12-07T02:59:17;19.40;;;10.45;;
67602;SDS011;54417;47.454;18.918;2022-12-07T03:04:55;21.38;;;12.15;;
67602;SDS011;54417;47.454;18.918;2022-12-07T03:10:33;20.95;;;10.77;;
67602;SDS011;54417;47.454;18.918;2022-12-07T03:16:05;13.55;;;9.50;;
67602;SDS011;54417;47.454;18.918;2022-12-07T03:21:37;15.48;;;10.50;;
67602;SDS011;54417;47.454;18.918;2022-12-07T03:27:04;16.25;;;10.43;;
67602;SDS011;54417;47.454;18.918;2022-12-07T03:32:32;18.73;;;10.80;;
67602;SDS011;54417;47.454;18.918;2022-12-07T03:38:02;19.05;;;10.60;;
67602;SDS011;54417;47.454;18.918;2022-12-07T03:43:32;17.88;;;10.32;;
67602;SDS011;54417;47.454;18.918;2022-12-07T03:48:56;19.10;;;12.25;;
67602;SDS011;54417;47.454;18.918;2022-12-07T03:54:28;22.55;;;14.93;;
67602;SDS011;54417;47.454;18.918;2022-12-07T03:59:56;17.97;;;11.80;;
67602;SDS011;54417;47.454;18.918;2022-12-07T04:05:33;16.05;;;9.52;;
67602;SDS011;54417;47.454;18.918;2022-12-07T04:10:58;17.55;;;10.95;;
67602;SDS011;54417;47.454;18.918;2022-12-07T04:16:21;13.52;;;9.60;;
67602;SDS011;54417;47.454;18.918;2022-12-07T04:21:45;18.95;;;11.60;;
67602;SDS011;54417;47.454;18.918;2022-12-07T04:27:11;31.58;;;16.30;;
67602;SDS011;54417;47.454;18.918;2022-12-07T04:32:35;26.15;;;15.13;;
67602;SDS011;54417;47.454;18.918;2022-12-07T04:37:59;25.33;;;14.15;;
67602;SDS011;54417;47.454;18.918;2022-12-07T04:43:24;32.05;;;15.13;;
67602;SDS011;54417;47.454;18.918;2022-12-07T04:48:48;20.35;;;12.77;;
67602;SDS011;54417;47.454;18.918;2022-12-07T04:54:12;18.98;;;12.63;;
67602;SDS011;54417;47.454;18.918;2022-12-07T04:59:38;29.77;;;14.77;;
67602;SDS011;54417;47.454;18.918;2022-12-07T05:05:07;22.92;;;13.55;;
67602;SDS011;54417;47.454;18.918;2022-12-07T05:10:31;22.45;;;13.35;;
67602;SDS011;54417;47.454;18.918;2022-12-07T05:15:56;18.25;;;11.82;;
67602;SDS011;54417;47.454;18.918;2022-12-07T05:21:19;16.70;;;11.00;;
67602;SDS011;54417;47.454;18.918;2022-12-07T05:26:43;17.75;;;11.13;;
67602;SDS011;54417;47.454;18.918;2022-12-07T05:32:09;19.77;;;10.50;;
67602;SDS011;54417;47.454;18.918;2022-12-07T05:37:33;20.85;;;11.90;;
67602;SDS011;54417;47.454;18.918;2022-12-07T05:42:56;18.42;;;10.98;;
67602;SDS011;54417;47.454;18.918;2022-12-07T05:48:27;21.13;;;12.40;;
67602;SDS011;54417;47.454;18.918;2022-12-07T05:53:51;22.08;;;11.82;;
67602;SDS011;54417;47.454;18.918;2022-12-07T05:59:14;25.60;;;11.65;;
67602;SDS011;54417;47.454;18.918;2022-12-07T06:04:50;17.00;;;10.85;;
67602;SDS011;54417;47.454;18.918;2022-12-07T06:10:14;23.55;;;11.90;;
67602;SDS011;54417;47.454;18.918;2022-12-07T06:15:38;19.27;;;11.60;;
67602;SDS011;54417;47.454;18.918;2022-12-07T06:21:03;24.70;;;10.73;;
67602;SDS011;54417;47.454;18.918;2022-12-07T06:26:27;19.65;;;10.35;;
67602;SDS011;54417;47.454;18.918;2022-12-07T06:31:51;18.85;;;10.52;;
67602;SDS011;54417;47.454;18.918;2022-12-07T06:37:16;15.48;;;10.70;;
67602;SDS011;54417;47.454;18.918;2022-12-07T06:42:40;16.25;;;10.57;;
67602;SDS011;54417;47.454;18.918;2022-12-07T06:48:04;26.38;;;11.35;;
67602;SDS011;54417;47.454;18.918;2022-12-07T06:53:29;27.05;;;12.38;;
67602;SDS011;54417;47.454;18.918;2022-12-07T06:58:53;18.55;;;10.73;;
67602;SDS011;54417;47.454;18.918;2022-12-07T07:04:16;27.05;;;11.73;;
67602;SDS011;54417;47.454;18.918;2022-12-07T07:09:41;22.38;;;12.80;;
67602;SDS011;54417;47.454;18.918;2022-12-07T07:15:06;21.60;;;11.38;;
67602;SDS011;54417;47.454;18.918;2022-12-07T07:20:30;19.85;;;12.05;;
67602;SDS011;54417;47.454;18.918;2022-12-07T07:25:55;38.22;;;18.10;;
67602;SDS011;54417;47.454;18.918;2022-12-07T07:31:19;21.45;;;13.30;;
67602;SDS011;54417;47.454;18.918;2022-12-07T07:36:43;23.27;;;13.32;;
67602;SDS011;54417;47.454;18.918;2022-12-07T07:42:08;20.17;;;12.63;;
67602;SDS011;54417;47.454;18.918;2022-12-07T07:47:33;20.63;;;12.75;;
67602;SDS011;54417;47.454;18.918;2022-12-07T07:52:57;24.20;;;13.48;;
67602;SDS011;54417;47.454;18.918;2022-12-07T07:58:22;24.58;;;14.77;;
67602;SDS011;54417;47.454;18.918;2022-12-07T08:03:46;18.85;;;13.38;;
67602;SDS011;54417;47.454;18.918;2022-12-07T08:09:10;22.38;;;14.10;;
67602;SDS011;54417;47.454;18.918;2022-12-07T08:14:35;25.10;;;16.02;;
67602;SDS011;54417;47.454;18.918;2022-12-07T08:19:58;26.00;;;15.05;;
67602;SDS011;54417;47.454;18.918;2022-12-07T08:25:22;25.35;;;14.68;;
67602;SDS011;54417;47.454;18.918;2022-12-07T08:30:48;27.45;;;16.13;;
67602;SDS011;54417;47.454;18.918;2022-12-07T08:36:12;36.10;;;18.50;;
67602;SDS011;54417;47.454;18.918;2022-12-07T08:41:36;25.58;;;17.00;;
67602;SDS011;54417;47.454;18.918;2022-12-07T08:47:02;26.75;;;16.20;;
67602;SDS011;54417;47.454;18.918;2022-12-07T08:52:28;27.00;;;18.17;;
67602;SDS011;54417;47.454;18.918;2022-12-07T08:57:53;28.08;;;17.58;;
67602;SDS011;54417;47.454;18.918;2022-12-07T09:03:18;26.13;;;16.30;;
67602;SDS011;54417;47.454;18.918;2022-12-07T09:08:44;27.55;;;17.08;;
67602;SDS011;54417;47.454;18.918;2022-12-07T09:14:10;24.65;;;14.38;;
67602;SDS011;54417;47.454;18.918;2022-12-07T09:19:36;22.52;;;14.43;;
67602;SDS011;54417;47.454;18.918;2022-12-07T09:25:00;25.35;;;15.85;;
67602;SDS011;54417;47.454;18.918;2022-12-07T09:30:25;26.70;;;15.95;;
67602;SDS011;54417;47.454;18.918;2022-12-07T09:35:51;20.55;;;13.90;;
67602;SDS011;54417;47.454;18.918;2022-12-07T09:41:15;21.50;;;14.40;;
67602;SDS011;54417;47.454;18.918;2022-12-07T09:46:40;20.58;;;13.15;;
67602;SDS011;54417;47.454;18.918;2022-12-07T09:52:17;23.55;;;13.45;;
67602;SDS011;54417;47.454;18.918;2022-12-07T09:57:43;19.55;;;13.15;;
67602;SDS011;54417;47.454;18.918;2022-12-07T10:03:07;19.38;;;12.43;;
67602;SDS011;54417;47.454;18.918;2022-12-07T10:08:33;17.50;;;11.55;;
67602;SDS011;54417;47.454;18.918;2022-12-07T10:14:09;17.05;;;11.85;;
67602;SDS011;54417;47.454;18.918;2022-12-07T10:19:35;15.43;;;11.40;;
67602;SDS011;54417;47.454;18.918;2022-12-07T10:25:07;15.23;;;10.40;;
67602;SDS011;54417;47.454;18.918;2022-12-07T10:30:32;14.02;;;10.35;;
67602;SDS011;54417;47.454;18.918;2022-12-07T10:36:18;15.20;;;9.75;;
67602;SDS011;54417;47.454;18.918;2022-12-07T10:41:55;15.77;;;10.95;;
67602;SDS011;54417;47.454;18.918;2022-12-07T10:47:25;13.25;;;9.85;;
67602;SDS011;54417;47.454;18.918;2022-12-07T10:52:58;10.18;;;7.47;;
67602;SDS011;54417;47.454;18.918;2022-12-07T10:58:34;13.65;;;8.52;;
67602;SDS011;54417;47.454;18.918;2022-12-07T11:04:10;11.75;;;8.50;;
67602;SDS011;54417;47.454;18.918;2022-12-07T11:09:54;15.25;;;8.50;;
67602;SDS011;54417;47.454;18.918;2022-12-07T11:15:33;13.48;;;8.63;;
67602;SDS011;54417;47.454;18.918;2022-12-07T11:21:07;10.20;;;7.53;;
67602;SDS011;54417;47.454;18.918;2022-12-07T11:26:41;10.57;;;7.50;;
67602;SDS011;54417;47.454;18.918;2022-12-07T11:32:19;11.32;;;7.70;;
67602;SDS011;54417;47.454;18.918;2022-12-07T11:38:07;11.73;;;8.65;;
67602;SDS011;54417;47.454;18.918;2022-12-07T11:43:34;9.60;;;7.35;;
67602;SDS011;54417;47.454;18.918;2022-12-07T11:49:02;9.23;;;6.55;;
67602;SDS011;54417;47.454;18.918;2022-12-07T11:54:34;9.35;;;7.05;;
67602;SDS011;54417;47.454;18.918;2022-12-07T12:00:04;7.57;;;6.20;;
67602;SDS011;54417;47.454;18.918;2022-12-07T12:05:33;8.20;;;6.57;;
67602;SDS011;54417;47.454;18.918;2022-12-07T12:10:59;8.73;;;6.18;;
67602;SDS011;54417;47.454;18.918;2022-12-07T12:22:20;8.43;;;6.18;;
67602;SDS011;54417;47.454;18.918;2022-12-07T12:27:52;9.80;;;6.55;;
67602;SDS011;54417;47.454;18.918;2022-12-07T12:33:20;9.43;;;6.75;;
67602;SDS011;54417;47.454;18.918;2022-12-07T12:38:51;18.87;;;7.03;;
67602;SDS011;54417;47.454;18.918;2022-12-07T12:50:33;8.65;;;5.90;;
67602;SDS011;54417;47.454;18.918;2022-12-07T13:02:20;9.18;;;6.45;;
67602;SDS011;54417;47.454;18.918;2022-12-07T13:07:56;13.13;;;6.25;;
67602;SDS011;54417;47.454;18.918;2022-12-07T13:13:29;8.07;;;5.85;;
67602;SDS011;54417;47.454;18.918;2022-12-07T13:18:55;6.45;;;4.85;;
67602;SDS011;54417;47.454;18.918;2022-12-07T13:24:19;7.63;;;4.70;;
67602;SDS011;54417;47.454;18.918;2022-12-07T13:29:44;10.85;;;5.68;;
67602;SDS011;54417;47.454;18.918;2022-12-07T13:41:05;7.57;;;5.50;;
67602;SDS011;54417;47.454;18.918;2022-12-07T13:46:42;7.35;;;5.80;;
67602;SDS011;54417;47.454;18.918;2022-12-07T13:52:14;10.18;;;5.38;;
67602;SDS011;54417;47.454;18.918;2022-12-07T13:57:39;8.63;;;6.00;;
67602;SDS011;54417;47.454;18.918;2022-12-07T14:09:07;8.52;;;6.18;;
67602;SDS011;54417;47.454;18.918;2022-12-07T14:14:32;12.73;;;7.13;;
67602;SDS011;54417;47.454;18.918;2022-12-07T14:19:59;17.23;;;7.60;;
67602;SDS011;54417;47.454;18.918;2022-12-07T14:25:24;9.70;;;7.10;;
67602;SDS011;54417;47.454;18.918;2022-12-07T14:30:49;18.08;;;8.02;;
67602;SDS011;54417;47.454;18.918;2022-12-07T14:36:14;13.18;;;7.80;;
67602;SDS011;54417;47.454;18.918;2022-12-07T14:41:38;14.55;;;8.82;;
67602;SDS011;54417;47.454;18.918;2022-12-07T14:47:14;14.63;;;7.35;;
67602;SDS011;54417;47.454;18.918;2022-12-07T14:53:00;17.63;;;10.68;;
67602;SDS011;54417;47.454;18.918;2022-12-07T14:58:43;15.20;;;9.45;;
67602;SDS011;54417;47.454;18.918;2022-12-07T15:04:10;15.85;;;9.63;;
67602;SDS011;54417;47.454;18.918;2022-12-07T15:09:35;16.08;;;9.52;;
67602;SDS011;54417;47.454;18.918;2022-12-07T15:14:59;16.77;;;9.02;;
67602;SDS011;54417;47.454;18.918;2022-12-07T15:20:24;23.13;;;8.88;;
67602;SDS011;54417;47.454;18.918;2022-12-07T15:25:49;17.15;;;9.63;;
67602;SDS011;54417;47.454;18.918;2022-12-07T15:31:13;14.25;;;9.15;;
67602;SDS011;54417;47.454;18.918;2022-12-07T15:36:57;16.52;;;8.88;;
67602;SDS011;54417;47.454;18.918;2022-12-07T15:42:22;19.85;;;13.45;;
67602;SDS011;54417;47.454;18.918;2022-12-07T15:47:46;23.88;;;15.02;;
67602;SDS011;54417;47.454;18.918;2022-12-07T15:53:30;28.50;;;17.02;;
67602;SDS011;54417;47.454;18.918;2022-12-07T15:58:57;19.17;;;11.00;;
67602;SDS011;54417;47.454;18.918;2022-12-07T16:04:21;18.83;;;11.95;;
67602;SDS011;54417;47.454;18.918;2022-12-07T16:09:45;22.70;;;12.45;;
67602;SDS011;54417;47.454;18.918;2022-12-07T16:15:11;21.45;;;12.40;;
67602;SDS011;54417;47.454;18.918;2022-12-07T16:20:34;20.35;;;9.23;;
67602;SDS011;54417;47.454;18.918;2022-12-07T16:26:03;19.20;;;9.43;;
67602;SDS011;54417;47.454;18.918;2022-12-07T16:31:29;19.92;;;10.48;;
67602;SDS011;54417;47.454;18.918;2022-12-07T16:36:53;18.35;;;10.85;;
67602;SDS011;54417;47.454;18.918;2022-12-07T16:42:25;18.20;;;10.23;;
67602;SDS011;54417;47.454;18.918;2022-12-07T16:47:51;15.85;;;10.25;;
67602;SDS011;54417;47.454;18.918;2022-12-07T16:53:14;21.00;;;9.90;;
67602;SDS011;54417;47.454;18.918;2022-12-07T16:58:38;19.92;;;9.77;;
67602;SDS011;54417;47.454;18.918;2022-12-07T17:04:04;22.23;;;13.10;;
67602;SDS011;54417;47.454;18.918;2022-12-07T17:09:28;24.35;;;12.50;;
67602;SDS011;54417;47.454;18.918;2022-12-07T17:14:51;22.25;;;11.95;;
67602;SDS011;54417;47.454;18.918;2022-12-07T17:20:42;22.38;;;11.77;;
67602;SDS011;54417;47.454;18.918;2022-12-07T17:26:07;28.63;;;12.23;;
67602;SDS011;54417;47.454;18.918;2022-12-07T17:31:32;27.80;;;13.65;;
67602;SDS011;54417;47.454;18.918;2022-12-07T17:36:57;23.83;;;13.40;;
67602;SDS011;54417;47.454;18.918;2022-12-07T17:42:24;21.30;;;13.05;;
67602;SDS011;54417;47.454;18.918;2022-12-07T17:48:02;32.85;;;15.38;;
67602;SDS011;54417;47.454;18.918;2022-12-07T17:53:29;40.60;;;21.85;;
67602;SDS011;54417;47.454;18.918;2022-12-07T17:58:55;34.20;;;20.15;;
67602;SDS011;54417;47.454;18.918;2022-12-07T18:04:19;37.33;;;19.75;;
67602;SDS011;54417;47.454;18.918;2022-12-07T18:09:44;30.02;;;15.77;;
67602;SDS011;54417;47.454;18.918;2022-12-07T18:15:10;32.42;;;17.38;;
67602;SDS011;54417;47.454;18.918;2022-12-07T18:20:34;37.67;;;17.02;;
67602;SDS011;54417;47.454;18.918;2022-12-07T18:25:59;31.65;;;15.65;;
67602;SDS011;54417;47.454;18.918;2022-12-07T18:31:23;36.47;;;17.27;;
67602;SDS011;54417;47.454;18.918;2022-12-07T18:36:49;33.50;;;15.30;;
67602;SDS011;54417;47.454;18.918;2022-12-07T18:42:14;51.00;;;21.70;;
67602;SDS011;54417;47.454;18.918;2022-12-07T18:47:39;53.90;;;20.05;;
67602;SDS011;54417;47.454;18.918;2022-12-07T18:53:04;41.17;;;17.00;;
67602;SDS011;54417;47.454;18.918;2022-12-07T18:58:31;66.22;;;25.73;;
67602;SDS011;54417;47.454;18.918;2022-12-07T19:03:56;33.63;;;16.67;;
67602;SDS011;54417;47.454;18.918;2022-12-07T19:09:23;37.60;;;17.17;;
67602;SDS011;54417;47.454;18.918;2022-12-07T19:14:48;32.40;;;16.85;;
67602;SDS011;54417;47.454;18.918;2022-12-07T19:20:14;30.38;;;14.32;;
67602;SDS011;54417;47.454;18.918;2022-12-07T19:25:38;29.38;;;14.50;;
67602;SDS011;54417;47.454;18.918;2022-12-07T19:31:05;25.77;;;13.02;;
67602;SDS011;54417;47.454;18.918;2022-12-07T19:36:29;27.17;;;13.20;;
67602;SDS011;54417;47.454;18.918;2022-12-07T19:41:53;24.90;;;13.90;;
67602;SDS011;54417;47.454;18.918;2022-12-07T19:47:20;30.70;;;15.57;;
67602;SDS011;54417;47.454;18.918;2022-12-07T19:52:44;38.50;;;17.73;;
67602;SDS011;54417;47.454;18.918;2022-12-07T19:58:08;32.03;;;16.15;;
67602;SDS011;54417;47.454;18.918;2022-12-07T20:03:33;25.13;;;14.30;;
67602;SDS011;54417;47.454;18.918;2022-12-07T20:08:56;49.05;;;17.85;;
67602;SDS011;54417;47.454;18.918;2022-12-07T20:14:20;40.05;;;18.20;;
67602;SDS011;54417;47.454;18.918;2022-12-07T20:19:45;45.90;;;20.67;;
67602;SDS011;54417;47.454;18.918;2022-12-07T20:25:09;37.05;;;18.77;;
67602;SDS011;54417;47.454;18.918;2022-12-07T20:30:33;40.10;;;18.90;;
67602;SDS011;54417;47.454;18.918;2022-12-07T20:36:01;58.47;;;26.98;;
67602;SDS011;54417;47.454;18.918;2022-12-07T20:41:26;66.68;;;28.80;;
67602;SDS011;54417;47.454;18.918;2022-12-07T20:47:08;48.88;;;22.27;;
67602;SDS011;54417;47.454;18.918;2022-12-07T20:52:33;54.58;;;25.88;;
67602;SDS011;54417;47.454;18.918;2022-12-07T20:57:59;56.15;;;24.27;;
67602;SDS011;54417;47.454;18.918;2022-12-07T21:03:22;44.38;;;21.08;;
67602;SDS011;54417;47.454;18.918;2022-12-07T21:08:49;63.42;;;21.42;;
67602;SDS011;54417;47.454;18.918;2022-12-07T21:14:14;40.47;;;20.02;;
67602;SDS011;54417;47.454;18.918;2022-12-07T21:19:38;41.58;;;19.20;;
67602;SDS011;54417;47.454;18.918;2022-12-07T21:25:04;55.35;;;22.05;;
67602;SDS011;54417;47.454;18.918;2022-12-07T21:30:28;55.08;;;22.58;;
67602;SDS011;54417;47.454;18.918;2022-12-07T21:36:16;32.15;;;15.15;;
67602;SDS011;54417;47.454;18.918;2022-12-07T21:41:43;32.05;;;14.88;;
67602;SDS011;54417;47.454;18.918;2022-12-07T21:47:06;26.95;;;14.90;;
67602;SDS011;54417;47.454;18.918;2022-12-07T21:52:30;28.65;;;14.55;;
67602;SDS011;54417;47.454;18.918;2022-12-07T21:57:55;36.40;;;17.27;;
67602;SDS011;54417;47.454;18.918;2022-12-07T22:03:19;31.40;;;17.02;;
67602;SDS011;54417;47.454;18.918;2022-12-07T22:08:43;30.25;;;16.58;;
67602;SDS011;54417;47.454;18.918;2022-12-07T22:14:09;33.92;;;15.93;;
67602;SDS011;54417;47.454;18.918;2022-12-07T22:19:50;24.55;;;12.50;;
67602;SDS011;54417;47.454;18.918;2022-12-07T22:25:14;26.17;;;13.68;;
67602;SDS011;54417;47.454;18.918;2022-12-07T22:30:42;28.65;;;14.52;;
67602;SDS011;54417;47.454;18.918;2022-12-07T22:36:06;31.27;;;15.55;;
67602;SDS011;54417;47.454;18.918;2022-12-07T22:41:32;32.30;;;14.68;;
67602;SDS011;54417;47.454;18.918;2022-12-07T22:46:57;31.10;;;14.27;;
67602;SDS011;54417;47.454;18.918;2022-12-07T22:52:21;29.15;;;15.45;;
67602;SDS011;54417;47.454;18.918;2022-12-07T22:57:44;29.77;;;14.82;;
67602;SDS011;54417;47.454;18.918;2022-12-07T23:03:09;35.05;;;16.17;;
67602;SDS011;54417;47.454;18.918;2022-12-07T23:08:33;30.23;;;13.93;;
67602;SDS011;54417;47.454;18.918;2022-12-07T23:13:57;28.90;;;14.70;;
67602;SDS011;54417;47.454;18.918;2022-12-07T23:19:23;29.23;;;15.07;;
67602;SDS011;54417;47.454;18.918;2022-12-07T23:24:47;23.45;;;13.32;;
67602;SDS011;54417;47.454;18.918;2022-12-07T23:30:10;32.38;;;15.88;;
67602;SDS011;54417;47.454;18.918;2022-12-07T23:35:36;32.50;;;15.98;;
67602;SDS011;54417;47.454;18.918;2022-12-07T23:41:02;29.77;;;15.10;;
67602;SDS011;54417;47.454;18.918;2022-12-07T23:46:27;28.10;;;14.55;;
67602;SDS011;54417;47.454;18.918;2022-12-07T23:51:53;29.08;;;15.10;;
67602;SDS011;54417;47.454;18.918;2022-12-07T23:57:17;30.63;;;16.45;;
